createdAt,value
2022-11-02T00:01:59.208Z,8.30
2022-11-02T00:04:26.963Z,9.20
2022-11-02T00:06:54.679Z,8.70
2022-11-02T00:09:22.391Z,9.00
2022-11-02T00:11:50.384Z,8.80
2022-11-02T00:14:18.235Z,8.50
2022-11-02T00:16:46.403Z,9.90
2022-11-02T00:19:14.686Z,9.40
2022-11-02T00:21:42.760Z,8.60
2022-11-02T00:24:12.692Z,9.30
2022-11-02T00:26:40.543Z,9.30
2022-11-02T00:29:08.614Z,9.00
2022-11-02T00:31:36.640Z,9.50
2022-11-02T00:34:04.459Z,8.60
2022-11-02T00:36:32.278Z,8.90
2022-11-02T00:39:00.146Z,8.40
2022-11-02T00:41:27.927Z,9.50
2022-11-02T00:43:55.711Z,8.70
2022-11-02T00:46:23.451Z,9.10
2022-11-02T00:48:51.505Z,9.30
2022-11-02T00:51:19.536Z,9.60
2022-11-02T00:53:47.703Z,9.30
2022-11-02T00:56:15.673Z,9.40
2022-11-02T00:58:43.712Z,10.60
2022-11-02T01:01:12.641Z,13.00
2022-11-02T01:03:40.847Z,12.60
2022-11-02T01:06:13.894Z,11.90
2022-11-02T01:08:42.380Z,11.40
2022-11-02T01:11:16.722Z,11.20
2022-11-02T01:13:46.003Z,10.70
2022-11-02T01:16:15.467Z,10.50
2022-11-02T01:18:44.008Z,11.30
2022-11-02T01:21:11.816Z,11.70
2022-11-02T01:23:40.540Z,10.80
2022-11-02T01:26:09.842Z,11.50
2022-11-02T01:28:38.131Z,11.50
2022-11-02T01:31:07.257Z,11.40
2022-11-02T01:33:36.441Z,12.10
2022-11-02T01:36:06.853Z,12.40
2022-11-02T01:38:34.655Z,11.60
2022-11-02T01:41:02.443Z,12.20
2022-11-02T01:43:32.830Z,12.80
2022-11-02T01:46:19.312Z,13.20
2022-11-02T01:48:53.275Z,12.50
2022-11-02T01:51:27.107Z,12.40
2022-11-02T01:54:00.236Z,12.90
2022-11-02T01:56:33.089Z,13.10
2022-11-02T01:59:06.592Z,12.70
2022-11-02T02:01:34.840Z,13.20
2022-11-02T02:04:03.334Z,13.80
2022-11-02T02:06:36.545Z,14.00
2022-11-02T02:09:08.091Z,12.80
2022-11-02T02:11:38.864Z,15.10
2022-11-02T02:14:19.941Z,13.90
2022-11-02T02:16:54.288Z,13.50
2022-11-02T02:19:34.346Z,13.90
2022-11-02T02:22:09.624Z,13.20
2022-11-02T02:24:54.101Z,13.60
2022-11-02T02:27:35.145Z,14.20
2022-11-02T02:30:09.859Z,13.40
2022-11-02T02:32:41.341Z,14.00
2022-11-02T02:35:25.828Z,13.40
2022-11-02T02:37:53.553Z,13.60
2022-11-02T02:40:27.539Z,13.40
2022-11-02T02:43:04.244Z,14.10
2022-11-02T02:45:52.693Z,14.50
2022-11-02T02:48:23.448Z,14.50
2022-11-02T02:50:57.133Z,14.40
2022-11-02T02:53:32.592Z,13.20
2022-11-02T02:56:02.597Z,14.40
2022-11-02T02:58:38.897Z,14.40
2022-11-02T03:01:11.102Z,14.40
2022-11-02T03:03:42.434Z,13.90
2022-11-02T03:06:15.980Z,13.30
2022-11-02T03:08:58.638Z,14.40
2022-11-02T03:11:28.201Z,14.00
2022-11-02T03:14:12.519Z,13.60
2022-11-02T03:16:55.808Z,13.70
2022-11-02T03:19:36.919Z,13.10
2022-11-02T03:22:16.640Z,13.80
2022-11-02T03:24:55.555Z,13.80
2022-11-02T03:27:51.164Z,14.00
2022-11-02T03:30:22.542Z,13.90
2022-11-02T03:33:07.463Z,13.40
2022-11-02T03:35:51.408Z,13.40
2022-11-02T03:38:22.347Z,14.30
2022-11-02T03:40:54.326Z,13.70
2022-11-02T03:43:25.179Z,14.00
2022-11-02T03:46:02.180Z,13.90
2022-11-02T03:48:36.152Z,14.80
2022-11-02T03:51:10.568Z,15.10
2022-11-02T03:53:53.505Z,15.50
2022-11-02T03:56:45.623Z,15.40
2022-11-02T03:59:14.536Z,14.80
2022-11-02T04:01:46.434Z,15.90
2022-11-02T04:04:14.772Z,15.20
2022-11-02T04:06:47.019Z,13.40
2022-11-02T04:09:15.576Z,15.30
2022-11-02T04:12:02.675Z,15.90
2022-11-02T04:14:40.215Z,15.30
2022-11-02T04:17:32.356Z,24.40
2022-11-02T04:20:01.986Z,16.90
2022-11-02T04:22:49.100Z,18.90
2022-11-02T04:25:19.345Z,17.60
2022-11-02T04:28:10.110Z,16.00
2022-11-02T04:30:50.423Z,16.70
2022-11-02T04:33:35.431Z,16.10
2022-11-02T04:36:15.490Z,16.20
2022-11-02T04:38:44.350Z,15.50
2022-11-02T04:41:41.263Z,16.20
2022-11-02T04:44:29.251Z,15.30
2022-11-02T04:47:03.428Z,15.90
2022-11-02T04:49:33.171Z,15.40
2022-11-02T04:52:01.267Z,15.60
2022-11-02T04:54:29.802Z,14.60
2022-11-02T04:57:01.002Z,15.90
2022-11-02T04:59:29.368Z,14.90
2022-11-02T05:01:57.497Z,13.70
2022-11-02T05:04:25.629Z,15.30
2022-11-02T05:06:56.383Z,14.50
2022-11-02T05:09:28.135Z,14.70
2022-11-02T05:11:56.170Z,14.20
2022-11-02T05:14:23.996Z,18.30
2022-11-02T05:16:52.260Z,16.80
2022-11-02T05:19:20.057Z,17.50
2022-11-02T05:21:48.809Z,16.10
2022-11-02T05:24:16.651Z,15.50
2022-11-02T05:26:44.475Z,16.50
2022-11-02T05:29:13.445Z,15.90
2022-11-02T05:31:41.768Z,15.50
2022-11-02T05:34:09.507Z,15.80
2022-11-02T05:36:38.297Z,15.30
2022-11-02T05:39:06.132Z,14.80
2022-11-02T05:41:34.173Z,15.50
2022-11-02T05:44:02.474Z,14.40
2022-11-02T05:46:31.454Z,14.30
2022-11-02T05:48:59.183Z,14.20
2022-11-02T05:51:26.920Z,14.00
2022-11-02T05:53:55.006Z,13.80
2022-11-02T05:56:25.212Z,14.50
2022-11-02T05:58:55.149Z,12.50
2022-11-02T06:01:22.958Z,13.80
2022-11-02T06:03:53.754Z,13.80
2022-11-02T06:06:22.328Z,15.30
2022-11-02T06:08:50.069Z,15.40
2022-11-02T06:11:17.910Z,17.40
2022-11-02T06:13:50.421Z,19.10
2022-11-02T06:16:23.099Z,17.70
2022-11-02T06:18:51.862Z,16.70
2022-11-02T06:21:19.691Z,17.10
2022-11-02T06:23:48.663Z,17.60
2022-11-02T06:26:16.514Z,18.10
2022-11-02T06:28:44.361Z,16.70
2022-11-02T06:31:13.312Z,19.20
2022-11-02T06:33:41.056Z,18.80
2022-11-02T06:36:09.202Z,20.00
2022-11-02T06:38:38.722Z,15.70
2022-11-02T06:41:06.984Z,16.20
2022-11-02T06:43:38.619Z,14.80
2022-11-02T06:46:06.688Z,14.30
2022-11-02T06:48:35.545Z,15.30
2022-11-02T06:51:05.301Z,17.30
2022-11-02T06:53:33.932Z,15.10
2022-11-02T06:56:02.367Z,16.10
2022-11-02T06:58:30.247Z,18.50
2022-11-02T07:01:00.730Z,20.20
2022-11-02T07:03:30.291Z,21.40
2022-11-02T07:05:58.439Z,18.90
2022-11-02T07:08:27.668Z,20.10
2022-11-02T07:10:56.522Z,18.10
2022-11-02T07:13:24.644Z,20.50
2022-11-02T07:15:54.273Z,13.50
2022-11-02T07:18:22.865Z,11.70
2022-11-02T07:20:50.650Z,10.30
2022-11-02T07:23:18.583Z,10.80
2022-11-02T07:25:46.518Z,9.20
2022-11-02T07:28:14.326Z,9.70
2022-11-02T07:30:42.235Z,9.30
2022-11-02T07:33:10.204Z,8.70
2022-11-02T07:35:38.348Z,8.20
2022-11-02T07:38:07.796Z,9.00
2022-11-02T07:40:36.840Z,9.90
2022-11-02T07:43:06.383Z,10.00
2022-11-02T07:46:04.169Z,10.90
2022-11-02T07:48:32.164Z,10.10
2022-11-02T07:51:00.066Z,10.60
2022-11-02T07:53:28.110Z,10.90
2022-11-02T07:55:55.791Z,9.10
2022-11-02T07:58:23.538Z,9.50
2022-11-02T08:00:55.858Z,10.60
2022-11-02T08:03:27.409Z,14.50
2022-11-02T08:06:02.093Z,9.10
2022-11-02T08:08:31.028Z,7.70
2022-11-02T08:11:07.110Z,7.30
2022-11-02T08:16:03.557Z,7.00
2022-11-02T08:18:51.261Z,7.00
2022-11-02T08:21:19.141Z,7.10
2022-11-02T08:23:46.955Z,6.70
2022-11-02T08:26:14.750Z,7.20
2022-11-02T08:28:42.654Z,7.20
2022-11-02T08:31:15.981Z,6.60
2022-11-02T08:33:44.956Z,6.70
2022-11-02T08:36:12.871Z,6.20
2022-11-02T08:38:40.745Z,6.50
2022-11-02T08:41:08.665Z,6.90
2022-11-02T08:43:36.517Z,6.50
2022-11-02T08:46:19.658Z,6.70
2022-11-02T08:48:47.733Z,6.60
2022-11-02T08:51:15.812Z,7.90
2022-11-02T08:53:48.625Z,8.10
2022-11-02T08:56:19.429Z,7.00
2022-11-02T08:58:47.267Z,6.10
2022-11-02T09:01:15.246Z,5.90
2022-11-02T09:03:43.152Z,6.90
2022-11-02T09:06:10.960Z,6.00
2022-11-02T09:08:38.834Z,5.80
2022-11-02T09:11:07.088Z,5.70
2022-11-02T09:13:34.939Z,6.10
2022-11-02T09:16:03.259Z,5.50
2022-11-02T09:18:31.435Z,5.70
2022-11-02T09:21:05.602Z,5.00
2022-11-02T09:23:33.824Z,6.20
2022-11-02T09:26:01.694Z,5.40
2022-11-02T09:28:29.556Z,5.80
2022-11-02T09:30:57.364Z,5.00
2022-11-02T09:33:25.191Z,5.00
2022-11-02T09:35:53.262Z,5.50
2022-11-02T09:38:21.130Z,5.00
2022-11-02T09:41:02.455Z,5.10
2022-11-02T09:44:03.777Z,4.70
2022-11-02T09:46:34.499Z,5.20
2022-11-02T09:49:11.992Z,5.90
2022-11-02T09:51:47.401Z,5.50
2022-11-02T09:54:30.973Z,5.50
2022-11-02T09:57:04.591Z,4.50
2022-11-02T09:59:33.261Z,4.40
2022-11-02T10:02:19.924Z,4.50
2022-11-02T10:05:00.240Z,5.50
2022-11-02T10:07:52.620Z,4.80
2022-11-02T10:10:27.632Z,5.10
2022-11-02T10:12:58.647Z,4.80
2022-11-02T10:15:40.401Z,4.40
2022-11-02T10:18:18.138Z,6.00
2022-11-02T10:20:49.848Z,5.80
2022-11-02T10:23:29.130Z,5.90
2022-11-02T10:25:57.063Z,3.90
2022-11-02T10:28:30.667Z,4.70
2022-11-02T10:30:58.921Z,4.40
2022-11-02T10:33:28.393Z,4.70
2022-11-02T10:36:23.682Z,4.70
2022-11-02T10:39:05.278Z,4.20
2022-11-02T10:41:52.442Z,3.80
2022-11-02T10:44:45.047Z,4.70
2022-11-02T10:47:20.611Z,4.80
2022-11-02T10:50:25.696Z,4.30
2022-11-02T10:52:53.529Z,4.10
2022-11-02T10:55:49.707Z,4.90
2022-11-02T10:58:21.489Z,3.80
2022-11-02T11:00:49.847Z,4.60
2022-11-02T11:03:19.075Z,3.50
2022-11-02T11:05:49.701Z,2.90
2022-11-02T11:08:39.044Z,3.50
2022-11-02T11:11:18.950Z,3.20
2022-11-02T11:16:50.257Z,3.60
2022-11-02T11:22:33.104Z,4.10
2022-11-02T11:25:13.311Z,4.10
2022-11-02T11:27:54.919Z,4.20
2022-11-02T11:33:23.475Z,3.60
2022-11-02T11:35:51.939Z,3.50
2022-11-02T11:38:22.807Z,4.00
2022-11-02T11:40:54.550Z,3.80
2022-11-02T11:43:26.913Z,3.40
2022-11-02T11:46:05.833Z,3.40
2022-11-02T11:48:38.237Z,3.50
2022-11-02T11:51:25.127Z,3.00
2022-11-02T11:54:15.166Z,3.30
2022-11-02T11:56:42.997Z,3.10
2022-11-02T11:59:28.192Z,3.10
2022-11-02T12:01:58.777Z,3.20
2022-11-02T12:04:28.447Z,2.70
2022-11-02T12:07:45.694Z,3.50
2022-11-02T12:10:32.577Z,2.80
2022-11-02T12:13:20.640Z,3.50
2022-11-02T12:16:17.650Z,3.20
2022-11-02T12:19:07.595Z,4.10
2022-11-02T12:21:46.047Z,2.70
2022-11-02T12:24:39.044Z,3.20
2022-11-02T12:27:23.043Z,3.20
2022-11-02T12:30:09.578Z,3.40
2022-11-02T12:32:50.244Z,3.00
2022-11-02T12:35:43.255Z,3.10
2022-11-02T12:38:41.940Z,3.00
2022-11-02T12:41:22.440Z,2.90
2022-11-02T12:43:58.388Z,3.40
2022-11-02T12:49:36.531Z,2.70
2022-11-02T12:52:13.631Z,2.80
2022-11-02T12:54:48.125Z,3.00
2022-11-02T12:57:21.068Z,2.70
2022-11-02T12:59:55.250Z,2.60
2022-11-02T13:02:29.450Z,2.50
2022-11-02T13:05:17.781Z,2.30
2022-11-02T13:07:59.534Z,2.70
2022-11-02T13:10:43.055Z,2.70
2022-11-02T13:13:16.469Z,2.30
2022-11-02T13:15:47.387Z,2.00
2022-11-02T13:18:24.051Z,2.00
2022-11-02T13:20:55.709Z,1.80
2022-11-02T13:23:46.518Z,2.20
2022-11-02T13:26:27.507Z,1.90
2022-11-02T13:28:57.245Z,3.90
2022-11-02T13:31:46.748Z,2.90
2022-11-02T13:34:41.481Z,3.40
2022-11-02T13:37:35.927Z,1.60
2022-11-02T13:40:28.262Z,2.90
2022-11-02T13:43:23.278Z,2.10
2022-11-02T13:46:40.031Z,2.50
2022-11-02T13:49:19.752Z,2.60
2022-11-02T13:51:59.615Z,2.70
2022-11-02T13:54:30.328Z,2.20
2022-11-02T13:56:59.065Z,1.70
2022-11-02T13:59:33.399Z,1.80
2022-11-02T14:02:03.609Z,2.00
2022-11-02T14:04:43.095Z,2.30
2022-11-02T14:07:28.065Z,1.80
2022-11-02T14:10:08.751Z,2.40
2022-11-02T14:12:43.525Z,2.10
2022-11-02T14:15:14.170Z,2.00
2022-11-02T14:17:54.782Z,1.80
2022-11-02T14:20:44.679Z,2.20
2022-11-02T14:23:14.274Z,2.30
2022-11-02T14:25:53.504Z,1.90
2022-11-02T14:28:28.962Z,2.20
2022-11-02T14:31:06.088Z,2.60
2022-11-02T14:33:52.949Z,2.40
2022-11-02T14:36:42.152Z,2.50
2022-11-02T14:39:29.052Z,2.70
2022-11-02T14:41:57.123Z,2.80
2022-11-02T14:44:37.107Z,3.40
2022-11-02T14:47:17.430Z,3.30
2022-11-02T14:49:56.257Z,2.60
2022-11-02T14:52:24.089Z,2.40
2022-11-02T14:55:08.265Z,4.50
2022-11-02T14:57:40.681Z,4.90
2022-11-02T15:00:47.657Z,3.70
2022-11-02T15:03:25.333Z,3.40
2022-11-02T15:06:03.211Z,2.90
2022-11-02T15:08:36.302Z,2.80
2022-11-02T15:11:41.946Z,3.20
2022-11-02T15:14:39.019Z,5.70
2022-11-02T15:17:13.029Z,4.40
2022-11-02T15:19:46.436Z,4.90
2022-11-02T15:22:32.677Z,3.20
2022-11-02T15:25:07.283Z,2.60
2022-11-02T15:27:41.343Z,4.30
2022-11-02T15:30:29.005Z,4.20
2022-11-02T15:33:02.822Z,4.30
2022-11-02T15:35:37.110Z,5.50
2022-11-02T15:38:30.468Z,4.80
2022-11-02T15:41:08.000Z,14.20
2022-11-02T15:44:04.067Z,16.20
2022-11-02T15:46:45.351Z,9.30
2022-11-02T15:49:32.125Z,7.40
2022-11-02T15:52:25.129Z,6.20
2022-11-02T15:54:55.607Z,5.70
2022-11-02T15:57:36.500Z,9.90
2022-11-02T16:00:30.508Z,11.40
2022-11-02T16:03:06.665Z,14.50
2022-11-02T16:11:21.062Z,34.40
2022-11-02T16:14:07.577Z,37.70
2022-11-02T16:16:46.169Z,22.50
2022-11-02T16:19:20.326Z,17.90
2022-11-02T16:21:48.254Z,12.10
2022-11-02T16:24:15.248Z,23.90
2022-11-02T16:26:44.102Z,31.00
2022-11-02T16:29:11.321Z,40.70
2022-11-02T16:31:40.315Z,45.20
2022-11-02T16:34:29.937Z,25.90
2022-11-02T16:36:59.384Z,16.50
2022-11-02T16:39:37.957Z,14.90
2022-11-02T16:42:15.068Z,44.00
2022-11-02T16:44:42.760Z,45.80
2022-11-02T16:47:09.334Z,33.10
2022-11-02T16:49:57.436Z,27.30
2022-11-02T16:52:35.591Z,14.10
2022-11-02T16:55:22.236Z,8.60
2022-11-02T16:57:48.868Z,8.30
2022-11-02T17:00:19.699Z,12.80
2022-11-02T17:02:47.029Z,12.80
2022-11-02T17:05:22.878Z,19.90
2022-11-02T17:10:33.875Z,53.40
2022-11-02T17:13:02.354Z,47.00
2022-11-02T17:15:31.758Z,23.30
2022-11-02T17:18:07.418Z,14.20
2022-11-02T17:23:07.235Z,11.40
2022-11-02T17:25:36.283Z,15.70
2022-11-02T17:28:24.088Z,18.50
2022-11-02T17:30:52.233Z,12.10
2022-11-02T17:33:24.161Z,92.20
2022-11-02T17:35:53.098Z,49.10
2022-11-02T17:38:25.971Z,48.70
2022-11-02T17:40:53.774Z,26.10
2022-11-02T17:43:21.851Z,22.90
2022-11-02T17:45:58.956Z,18.10
2022-11-02T17:48:30.351Z,31.60
2022-11-02T17:50:59.218Z,50.10
2022-11-02T17:53:26.128Z,35.90
2022-11-02T17:55:53.834Z,34.30
2022-11-02T17:58:20.255Z,34.40
2022-11-02T18:00:46.824Z,23.10
2022-11-02T18:03:16.664Z,42.30
2022-11-02T18:05:46.631Z,36.80
2022-11-02T18:08:16.686Z,28.80
2022-11-02T18:10:45.875Z,27.30
2022-11-02T18:13:14.383Z,147.70
2022-11-02T18:15:41.246Z,41.90
2022-11-02T18:18:08.173Z,93.50
2022-11-02T18:20:40.177Z,70.50
2022-11-02T18:23:14.749Z,82.30
2022-11-02T18:25:41.500Z,51.70
2022-11-02T18:28:08.160Z,56.40
2022-11-02T18:30:34.897Z,95.30
2022-11-02T18:33:02.264Z,32.10
2022-11-02T18:35:28.782Z,77.70
2022-11-02T18:37:55.221Z,44.10
2022-11-02T18:40:21.849Z,29.40
2022-11-02T18:42:49.248Z,19.20
2022-11-02T18:45:16.188Z,48.60
2022-11-02T18:47:42.858Z,30.80
2022-11-02T18:50:11.782Z,69.70
2022-11-02T18:52:39.673Z,79.10
2022-11-02T18:55:06.702Z,27.40
2022-11-02T18:57:33.439Z,30.70
2022-11-02T19:00:02.204Z,79.20
2022-11-02T19:02:29.487Z,37.20
2022-11-02T19:04:56.280Z,64.50
2022-11-02T19:07:41.462Z,31.70
2022-11-02T19:10:09.207Z,93.50
2022-11-02T19:12:35.910Z,25.60
2022-11-02T19:15:02.490Z,57.80
2022-11-02T19:17:29.287Z,42.00
2022-11-02T19:19:56.554Z,38.30
2022-11-02T19:22:25.128Z,22.30
2022-11-02T19:24:52.000Z,31.70
2022-11-02T19:27:23.528Z,17.70
2022-11-02T19:29:50.734Z,16.10
2022-11-02T19:32:18.091Z,14.60
2022-11-02T19:34:45.138Z,10.40
2022-11-02T19:37:12.316Z,16.00
2022-11-02T19:39:39.064Z,11.40
2022-11-02T19:42:06.741Z,10.40
2022-11-02T19:44:35.985Z,9.10
2022-11-02T19:47:07.557Z,13.20
2022-11-02T19:49:33.933Z,9.80
2022-11-02T19:52:00.725Z,12.80
2022-11-02T19:54:27.258Z,13.90
2022-11-02T19:56:53.768Z,10.60
2022-11-02T19:59:20.255Z,12.30
2022-11-02T20:01:47.887Z,15.00
2022-11-02T20:04:14.585Z,68.50
2022-11-02T20:06:43.012Z,17.50
2022-11-02T20:09:15.708Z,100.80
2022-11-02T20:11:44.541Z,129.20
2022-11-02T20:14:12.857Z,35.80
2022-11-02T20:16:39.908Z,32.60
2022-11-02T20:19:07.258Z,24.70
2022-11-02T20:21:38.210Z,54.30
2022-11-02T20:24:08.256Z,100.40
2022-11-02T20:26:36.085Z,51.90
2022-11-02T20:29:04.781Z,17.40
2022-11-02T20:31:36.871Z,46.90
2022-11-02T20:34:05.784Z,15.80
2022-11-02T20:36:34.072Z,44.50
2022-11-02T20:39:02.754Z,22.20
2022-11-02T20:41:29.215Z,10.80
2022-11-02T20:43:56.381Z,21.00
2022-11-02T20:46:44.505Z,28.80
2022-11-02T20:49:21.846Z,12.40
2022-11-02T20:51:50.347Z,13.50
2022-11-02T20:54:18.702Z,14.80
2022-11-02T20:56:45.477Z,79.50
2022-11-02T20:59:12.054Z,21.10
2022-11-02T21:01:38.576Z,15.60
2022-11-02T21:04:05.360Z,18.40
2022-11-02T21:06:31.869Z,14.30
2022-11-02T21:08:59.942Z,14.10
2022-11-02T21:11:45.346Z,12.30
2022-11-02T21:14:11.777Z,13.20
2022-11-02T21:16:38.419Z,12.80
2022-11-02T21:19:04.926Z,16.40
2022-11-02T21:21:31.526Z,12.50
2022-11-02T21:23:57.936Z,37.30
2022-11-02T21:26:24.419Z,20.00
2022-11-02T21:28:50.882Z,14.80
2022-11-02T21:33:48.248Z,29.50
2022-11-02T21:36:16.803Z,23.80
2022-11-02T21:38:48.017Z,45.50
2022-11-02T21:41:21.182Z,29.40
2022-11-02T21:43:51.137Z,29.50
2022-11-02T21:46:18.787Z,50.10
2022-11-02T21:48:45.250Z,60.70
2022-11-02T21:51:18.976Z,26.70
2022-11-02T21:53:47.090Z,22.40
2022-11-02T21:56:16.332Z,18.40
2022-11-02T21:58:46.125Z,15.70
2022-11-02T22:01:42.304Z,16.40
2022-11-02T22:04:11.358Z,13.80
2022-11-02T22:06:38.290Z,13.40
2022-11-02T22:09:07.074Z,12.10
2022-11-02T22:11:34.420Z,14.70
2022-11-02T22:14:01.818Z,13.50
2022-11-02T22:16:37.071Z,17.80
2022-11-02T22:19:11.680Z,12.60
2022-11-02T22:21:40.671Z,11.80
2022-11-02T22:24:08.460Z,14.10
2022-11-02T22:26:36.638Z,11.90
2022-11-02T22:29:04.011Z,12.20
2022-11-02T22:31:33.749Z,13.20
2022-11-02T22:34:01.569Z,10.80
2022-11-02T22:36:31.928Z,11.40
2022-11-02T22:39:00.174Z,10.90
2022-11-02T22:41:47.056Z,10.40
2022-11-02T22:44:20.310Z,12.10
2022-11-02T22:46:49.123Z,11.30
2022-11-02T22:49:17.494Z,12.60
2022-11-02T22:51:46.440Z,12.90
2022-11-02T22:54:15.541Z,12.00
2022-11-02T22:56:43.714Z,13.30
2022-11-02T22:59:11.031Z,12.40
2022-11-02T23:01:38.448Z,14.10
2022-11-02T23:04:06.289Z,14.40
2022-11-02T23:06:33.549Z,13.50
2022-11-02T23:09:00.798Z,15.00
2022-11-02T23:11:30.555Z,13.30
2022-11-02T23:13:58.246Z,15.10
2022-11-02T23:16:29.417Z,14.70
2022-11-02T23:19:22.075Z,14.80
2022-11-02T23:22:22.785Z,15.10
2022-11-02T23:25:11.590Z,15.60
2022-11-02T23:28:17.095Z,14.60
2022-11-02T23:31:02.501Z,15.10
2022-11-02T23:33:35.577Z,14.20
2022-11-02T23:36:13.398Z,14.80
2022-11-02T23:39:00.760Z,16.00
2022-11-02T23:41:28.751Z,14.90
2022-11-02T23:44:10.875Z,14.30
2022-11-02T23:46:42.575Z,13.80
2022-11-02T23:49:09.785Z,14.00
2022-11-02T23:51:55.421Z,14.60
2022-11-02T23:54:40.905Z,14.10
2022-11-02T23:57:07.322Z,15.10
2022-11-02T23:59:33.859Z,16.90
